No particular awareness of the weather is required.   -   There are no Weather-warnings

Nearby METAR Reports

 

LEZL - Sevilla, Spain
Distance from station: ESE 25km
Updated: 19/02/2018 10:30
Clear
Clear
 Wind from ENE
Wind: ENE 11 km/h
Temperature: 11°C
Dew Point: 2°C
Humidity: 54%
Barometer: 1019 hPa
Summary: Clear
Visibility: greater than 10 km
2018/02/19 09:30 LEZL 190930Z 07006KT CAVOK 11/02 Q1019 NOSIG
LEMO - Morn, Spain
Distance from station: SE 65km
Updated: 19/02/2018 10:00
Mist, Partly cloudy
Mist, Partly cloudy
 Wind from varies
Wind: varies 4 km/h
Temperature: 9°C
Dew Point: 8°C
Humidity: 94%
Barometer: 1018 hPa
Summary: Mist
Clouds: Partly cloudy
Visibility: 3 km
2018/02/19 09:00 LEMO 190900Z VRB02KT 3000 BR NSC 09/08 Q1018 NOSIG
LEJR - Jerz, Spain
Distance from station: S 87km
Updated: 19/02/2018 10:30
Partly cloudy
Partly cloudy
 Wind from varies
Wind: varies 2 km/h
Temperature: 12°C
Dew Point: 10°C
Humidity: 88%
Barometer: 1018 hPa
Clouds: Partly cloudy
Visibility: 6 km
2018/02/19 09:30 LEJR 190930Z VRB01KT 6000 NSC 12/10 Q1018
 
LERT - Rota, Spain
Distance from station: S 101km
Updated: 19/02/2018 10:00
Fog, Overcast
Fog, Overcast
 Wind from N
Wind: N 6 km/h
Temperature: 9°C
Dew Point: 9°C
Humidity: 100%
Barometer: 1018 hPa
Summary: Fog
Clouds: Overcast
Visibility: 0 km
Cloud details: Overcast 30 m
2018/02/19 09:00 LERT 190900Z 01003KT 340V050 0200 R10/0375N FG VV001 09/09 Q1018 NOSIG
LEMG - Mlaga, Spain
Distance from station: ESE 178km
Updated: 19/02/2018 10:30
Mist, Partly cloudy
Mist, Partly cloudy
 Wind from WNW
Wind: WNW 7 km/h
Temperature: 12°C
Dew Point: 11°C
Humidity: 94%
Barometer: 1018 hPa
Summary: Mist
Clouds: Partly cloudy
Visibility: 3 km
Cloud details: Few Clouds 457 m
Partly cloudy 2591 m
2018/02/19 09:30 LEMG 190930Z 30004KT 3000 BR FEW015 SCT085 12/11 Q1018 NOSIG
LEBA - Crdoba, Spain
Distance from station: ENE 123km
Updated: 19/02/2018 10:30
Clear
Clear
 Wind from varies
Wind: varies 2 km/h
Temperature: 9°C
Dew Point: 2°C
Humidity: 62%
Barometer: 1019 hPa
Summary: Clear
Visibility: greater than 10 km
2018/02/19 09:30 LEBA 190930Z VRB01KT CAVOK 09/02 Q1019
 
LEGR - Granada, Spain
Distance from station: E 215km
Updated: 19/02/2018 10:30
Partly cloudy
Partly cloudy
 Wind from calm
Wind: Calm
Temperature: 8°C
Dew Point: 4°C
Humidity: 76%
Barometer: 1018 hPa
Clouds: Partly cloudy
Visibility: 8 km
Cloud details: Few Clouds 457 m
Partly cloudy 914 m
2018/02/19 09:30 LEGR 190930Z 00000KT 8000 FEW015 SCT030 08/04 Q1018
LEAM - Almera, Spain
Distance from station: E 344km
Updated: 19/02/2018 10:30
Mostly cloudy
Mostly cloudy
 Wind from NW
Wind: NW 13 km/h
Temperature: 12°C
Dew Point: 11°C
Humidity: 94%
Barometer: 1018 hPa
Clouds: Mostly cloudy
Visibility: 10 km
Cloud details: Few Clouds 762 m
Mostly cloudy 1372 m
2018/02/19 09:30 LEAM 190930Z 31007KT 9999 FEW025 BKN045 12/11 Q1018
GCLP - Las Palmas/Aeropuerto, Spain
Distance from station: SO 1410km
Updated: 19/02/2018 10:30
Partly cloudy
Partly cloudy
 Wind from N
Wind: N 20 km/h
Temperature: 17°C
Dew Point: 10°C
Humidity: 64%
Barometer: 1018 hPa
Clouds: Partly cloudy
Visibility: 10 km
Cloud details: Partly cloudy 914 m
2018/02/19 09:30 GCLP 190930Z 35011KT 9999 SCT030 17/10 Q1018 NOSIG
 
LEMD - Madrid/Barajas, Spain
Distance from station: NNE 402km
Updated: 19/02/2018 10:30
Few Clouds
Few Clouds
 Wind from N
Wind: N 17 km/h
Temperature: 11°C
Dew Point: 3°C
Humidity: 58%
Barometer: 1019 hPa
Clouds: Few Clouds
Visibility: 10 km
Cloud details: Few Clouds 2438 m
2018/02/19 09:30 LEMD 190930Z 01009KT 340V050 9999 FEW080 11/03 Q1019 NOSIG
LEVD - Valladolid, Spain
Distance from station: N 492km
Updated: 19/02/2018 10:30
Few Clouds
Few Clouds
 Wind from W
Wind: W 11 km/h
Temperature: 6°C
Wind Chill: 4°C
Dew Point: 2°C
Humidity: 76%
Barometer: 1021 hPa
Clouds: Few Clouds
Visibility: 10 km
Cloud details: Few Clouds 1494 m
2018/02/19 09:30 LEVD 190930Z 27006KT 9999 FEW049 06/02 Q1021
LEBL - Barcelona, Spain
Distance from station: NE 816km
Updated: 19/02/2018 10:30
Mostly cloudy
Mostly cloudy
 Wind from NW
Wind: NW 15 km/h
Temperature: 10°C
Wind Chill: 8°C
Dew Point: 5°C
Humidity: 71%
Barometer: 1018 hPa
Clouds: Mostly cloudy
Visibility: 10 km
Cloud details: Mostly cloudy 457 m
2018/02/19 09:30 LEBL 190930Z 32008KT 9999 BKN015 10/05 Q1018 NOSIG